ELY44 LLER-LLBG
Flight info
| Callsign | ELY44 |
|---|---|
| Flight time | 0h 38m |
| Altitude | 27000 |
| Route | NURIT J10 AMMIT |
| Aircraft | B738/M-SDE2E3FGHIJ1LORVWXY/LB1 |
Departure
| Time | 2026-04-22 11:52 |
|---|---|
| Airport | Ramon International Airport (LLER) |
Arrival
| Time | 2026-04-22 12:30 |
|---|---|
| Airport | Ben Gurion International Airport (LLBG) |
| Time | Latitude | Longitude | Altitude | Speed | Heading |
|---|---|---|---|---|---|
| 2026-04-22 11:27 | 29.72674 | 35.00821 | 272 ft | 0 kts | 282° |
| 2026-04-22 11:43 | 29.72671 | 35.00834 | 272 ft | 4 kts | 282° |
| 2026-04-22 11:43 | 29.72665 | 35.00864 | 270 ft | 4 kts | 284° |
| 2026-04-22 11:44 | 29.72660 | 35.00888 | 270 ft | 4 kts | 284° |
| 2026-04-22 11:44 | 29.72655 | 35.00917 | 276 ft | 4 kts | 268° |
| 2026-04-22 11:44 | 29.72660 | 35.00933 | 270 ft | 2 kts | 197° |
| 2026-04-22 11:44 | 29.72641 | 35.00927 | 270 ft | 4 kts | 195° |
| 2026-04-22 11:45 | 29.72614 | 35.00919 | 270 ft | 4 kts | 194° |
| 2026-04-22 11:45 | 29.72588 | 35.00911 | 270 ft | 4 kts | 193° |
| 2026-04-22 11:45 | 29.72581 | 35.00910 | 270 ft | 0 kts | 193° |
| 2026-04-22 11:48 | 29.72531 | 35.00896 | 271 ft | 15 kts | 192° |
| 2026-04-22 11:48 | 29.72428 | 35.00908 | 271 ft | 10 kts | 131° |
| 2026-04-22 11:48 | 29.72408 | 35.00976 | 275 ft | 16 kts | 105° |
| 2026-04-22 11:48 | 29.72331 | 35.01075 | 272 ft | 16 kts | 177° |
| 2026-04-22 11:49 | 29.72237 | 35.01085 | 273 ft | 9 kts | 136° |
| 2026-04-22 11:49 | 29.72214 | 35.01141 | 273 ft | 0 kts | 110° |
| 2026-04-22 11:49 | 29.72214 | 35.01144 | 273 ft | 2 kts | 99° |
| 2026-04-22 11:49 | 29.72213 | 35.01150 | 273 ft | 0 kts | 99° |
| 2026-04-22 11:50 | 29.72213 | 35.01153 | 274 ft | 2 kts | 99° |
| 2026-04-22 11:51 | 29.72208 | 35.01228 | 275 ft | 16 kts | 77° |
| 2026-04-22 11:51 | 29.72257 | 35.01279 | 274 ft | 4 kts | 14° |
| 2026-04-22 11:51 | 29.72530 | 35.01353 | 269 ft | 86 kts | 14° |
| 2026-04-22 11:51 | 29.73379 | 35.01588 | 268 ft | 164 kts | 12° |
| 2026-04-22 11:52 | 29.74591 | 35.01912 | 911 ft | 186 kts | 13° |
| 2026-04-22 11:52 | 29.75848 | 35.02185 | 2142 ft | 176 kts | 5° |
| 2026-04-22 11:52 | 29.77089 | 35.02319 | 3096 ft | 189 kts | 5° |
| 2026-04-22 11:52 | 29.78518 | 35.02478 | 3460 ft | 222 kts | 5° |
| 2026-04-22 11:53 | 29.80129 | 35.02671 | 3896 ft | 239 kts | 5° |
| 2026-04-22 11:53 | 29.81807 | 35.02882 | 4030 ft | 245 kts | 6° |
| 2026-04-22 11:53 | 29.83491 | 35.03104 | 4360 ft | 249 kts | 6° |
| 2026-04-22 11:53 | 29.85206 | 35.03334 | 5151 ft | 248 kts | 6° |
| 2026-04-22 11:54 | 29.86922 | 35.03565 | 5897 ft | 249 kts | 6° |
| 2026-04-22 11:54 | 29.88653 | 35.03799 | 6583 ft | 252 kts | 6° |
| 2026-04-22 11:54 | 29.90404 | 35.04058 | 7266 ft | 255 kts | 7° |
| 2026-04-22 11:54 | 29.92169 | 35.04331 | 7949 ft | 257 kts | 7° |
| 2026-04-22 11:55 | 29.93954 | 35.04608 | 8609 ft | 260 kts | 7° |
| 2026-04-22 11:55 | 29.95755 | 35.04886 | 9258 ft | 262 kts | 7° |
| 2026-04-22 11:55 | 29.97573 | 35.05167 | 9891 ft | 265 kts | 7° |
| 2026-04-22 11:55 | 29.99412 | 35.05450 | 10505 ft | 268 kts | 7° |
| 2026-04-22 11:56 | 30.01269 | 35.05736 | 11118 ft | 270 kts | 7° |
| 2026-04-22 11:56 | 30.03147 | 35.06025 | 11690 ft | 273 kts | 7° |
| 2026-04-22 11:56 | 30.05038 | 35.06316 | 12275 ft | 276 kts | 7° |
| 2026-04-22 11:56 | 30.06952 | 35.06613 | 12846 ft | 278 kts | 8° |
| 2026-04-22 11:57 | 30.08871 | 35.06975 | 13402 ft | 281 kts | 9° |
| 2026-04-22 11:57 | 30.10801 | 35.07372 | 13948 ft | 283 kts | 9° |
| 2026-04-22 11:57 | 30.12745 | 35.07777 | 14480 ft | 285 kts | 9° |
| 2026-04-22 11:57 | 30.14711 | 35.08185 | 15007 ft | 287 kts | 9° |
| 2026-04-22 11:58 | 30.16665 | 35.08587 | 15512 ft | 289 kts | 9° |
| 2026-04-22 11:58 | 30.18653 | 35.08993 | 16011 ft | 292 kts | 9° |
| 2026-04-22 11:58 | 30.20663 | 35.09404 | 16495 ft | 294 kts | 9° |
| 2026-04-22 11:58 | 30.22690 | 35.09817 | 16957 ft | 296 kts | 9° |
| 2026-04-22 11:59 | 30.24727 | 35.10218 | 17429 ft | 298 kts | 9° |
| 2026-04-22 11:59 | 30.26781 | 35.10614 | 17880 ft | 300 kts | 9° |
| 2026-04-22 11:59 | 30.28854 | 35.11015 | 18319 ft | 302 kts | 9° |
| 2026-04-22 11:59 | 30.30936 | 35.11418 | 18749 ft | 304 kts | 9° |
| 2026-04-22 12:00 | 30.33034 | 35.11825 | 19170 ft | 307 kts | 9° |
| 2026-04-22 12:00 | 30.35145 | 35.12228 | 19582 ft | 309 kts | 9° |
| 2026-04-22 12:00 | 30.37272 | 35.12635 | 19980 ft | 311 kts | 9° |
| 2026-04-22 12:00 | 30.39414 | 35.13044 | 20050 ft | 311 kts | 9° |
| 2026-04-22 12:01 | 30.41525 | 35.13447 | 20054 ft | 311 kts | 9° |
| 2026-04-22 12:01 | 30.43686 | 35.13860 | 20061 ft | 311 kts | 9° |
| 2026-04-22 12:01 | 30.45829 | 35.14270 | 20209 ft | 315 kts | 9° |
| 2026-04-22 12:01 | 30.48001 | 35.14686 | 20611 ft | 315 kts | 9° |
| 2026-04-22 12:02 | 30.50163 | 35.15100 | 21046 ft | 315 kts | 9° |
| 2026-04-22 12:02 | 30.52342 | 35.15517 | 21398 ft | 319 kts | 9° |
| 2026-04-22 12:02 | 30.54566 | 35.15943 | 21557 ft | 331 kts | 9° |
| 2026-04-22 12:02 | 30.56860 | 35.16601 | 21631 ft | 351 kts | 19° |
| 2026-04-22 12:03 | 30.59190 | 35.17679 | 21827 ft | 369 kts | 22° |
| 2026-04-22 12:03 | 30.61583 | 35.18872 | 22198 ft | 380 kts | 23° |
| 2026-04-22 12:03 | 30.64026 | 35.20106 | 22704 ft | 386 kts | 23° |
| 2026-04-22 12:03 | 30.66504 | 35.21352 | 23308 ft | 389 kts | 23° |
| 2026-04-22 12:04 | 30.68993 | 35.22591 | 24020 ft | 388 kts | 22° |
| 2026-04-22 12:04 | 30.71469 | 35.23815 | 24834 ft | 384 kts | 22° |
| 2026-04-22 12:04 | 30.73924 | 35.25025 | 25115 ft | 386 kts | 22° |
| 2026-04-22 12:04 | 30.76382 | 35.26233 | 25023 ft | 378 kts | 22° |
| 2026-04-22 12:05 | 30.78791 | 35.27416 | 24972 ft | 372 kts | 22° |
| 2026-04-22 12:05 | 30.81136 | 35.28568 | 24963 ft | 369 kts | 22° |
| 2026-04-22 12:05 | 30.83505 | 35.29733 | 24971 ft | 371 kts | 22° |
| 2026-04-22 12:05 | 30.85887 | 35.30905 | 24965 ft | 372 kts | 22° |
| 2026-04-22 12:06 | 30.88277 | 35.32081 | 24963 ft | 373 kts | 22° |
| 2026-04-22 12:06 | 30.90667 | 35.33258 | 24965 ft | 373 kts | 22° |
| 2026-04-22 12:06 | 30.93068 | 35.34427 | 24962 ft | 373 kts | 20° |
| 2026-04-22 12:06 | 30.95559 | 35.35256 | 24955 ft | 373 kts | 9° |
| 2026-04-22 12:07 | 30.98131 | 35.35595 | 24965 ft | 372 kts | 4° |
| 2026-04-22 12:07 | 31.00716 | 35.35821 | 24961 ft | 372 kts | 4° |
| 2026-04-22 12:07 | 31.03263 | 35.36057 | 25414 ft | 364 kts | 4° |
| 2026-04-22 12:07 | 31.05826 | 35.36316 | 25900 ft | 366 kts | 5° |
| 2026-04-22 12:08 | 31.08342 | 35.36577 | 26393 ft | 367 kts | 5° |
| 2026-04-22 12:08 | 31.10888 | 35.36834 | 26893 ft | 367 kts | 5° |
| 2026-04-22 12:08 | 31.13465 | 35.37094 | 27053 ft | 377 kts | 5° |
| 2026-04-22 12:08 | 31.16096 | 35.37359 | 27058 ft | 381 kts | 5° |
| 2026-04-22 12:09 | 31.18725 | 35.37632 | 27051 ft | 377 kts | 5° |
| 2026-04-22 12:09 | 31.21320 | 35.37912 | 27051 ft | 373 kts | 5° |
| 2026-04-22 12:09 | 31.23901 | 35.38194 | 27062 ft | 373 kts | 5° |
| 2026-04-22 12:09 | 31.26496 | 35.38475 | 27067 ft | 374 kts | 5° |
| 2026-04-22 12:10 | 31.29093 | 35.38756 | 27066 ft | 375 kts | 5° |
| 2026-04-22 12:10 | 31.31696 | 35.39037 | 27063 ft | 376 kts | 5° |
| 2026-04-22 12:10 | 31.34300 | 35.39371 | 27061 ft | 376 kts | 8° |
| 2026-04-22 12:10 | 31.36883 | 35.39888 | 27065 ft | 376 kts | 10° |
| 2026-04-22 12:11 | 31.39449 | 35.40479 | 27066 ft | 376 kts | 11° |
| 2026-04-22 12:11 | 31.42021 | 35.41085 | 27060 ft | 376 kts | 11° |
| 2026-04-22 12:11 | 31.43725 | 35.41481 | 27059 ft | 376 kts | 11° |
| 2026-04-22 12:11 | 31.47121 | 35.42251 | 27061 ft | 375 kts | 10° |
| 2026-04-22 12:12 | 31.49690 | 35.42825 | 27060 ft | 374 kts | 10° |
| 2026-04-22 12:12 | 31.52247 | 35.43394 | 27061 ft | 374 kts | 10° |
| 2026-04-22 12:12 | 31.53975 | 35.43778 | 26945 ft | 376 kts | 10° |
| 2026-04-22 12:12 | 31.57413 | 35.44541 | 26181 ft | 380 kts | 10° |
| 2026-04-22 12:13 | 31.60012 | 35.45115 | 25400 ft | 381 kts | 10° |
| 2026-04-22 12:13 | 31.62638 | 35.45698 | 24396 ft | 387 kts | 11° |
| 2026-04-22 12:13 | 31.64424 | 35.46116 | 23630 ft | 390 kts | 11° |
| 2026-04-22 12:13 | 31.67107 | 35.46768 | 22509 ft | 394 kts | 11° |
| 2026-04-22 12:14 | 31.69795 | 35.47424 | 21392 ft | 396 kts | 11° |
| 2026-04-22 12:14 | 31.72511 | 35.47959 | 20254 ft | 396 kts | 1° |
| 2026-04-22 12:14 | 31.75220 | 35.47472 | 19129 ft | 395 kts | 340° |
| 2026-04-22 12:14 | 31.77613 | 35.46034 | 18019 ft | 392 kts | 323° |
| 2026-04-22 12:15 | 31.79557 | 35.43809 | 16914 ft | 389 kts | 311° |
| 2026-04-22 12:15 | 31.81610 | 35.41783 | 15767 ft | 388 kts | 332° |
| 2026-04-22 12:15 | 31.84077 | 35.40508 | 14744 ft | 381 kts | 334° |
| 2026-04-22 12:15 | 31.86381 | 35.39002 | 13587 ft | 379 kts | 321° |
| 2026-04-22 12:16 | 31.88045 | 35.36644 | 12471 ft | 376 kts | 296° |
| 2026-04-22 12:16 | 31.88736 | 35.33713 | 11369 ft | 372 kts | 274° |
| 2026-04-22 12:16 | 31.88706 | 35.30695 | 10538 ft | 363 kts | 266° |
| 2026-04-22 12:16 | 31.88528 | 35.27826 | 10279 ft | 339 kts | 265° |
| 2026-04-22 12:17 | 31.88339 | 35.25152 | 10123 ft | 316 kts | 265° |
| 2026-04-22 12:17 | 31.88157 | 35.22653 | 10018 ft | 298 kts | 265° |
| 2026-04-22 12:17 | 31.87979 | 35.20260 | 10009 ft | 291 kts | 265° |
| 2026-04-22 12:17 | 31.87812 | 35.18043 | 10016 ft | 292 kts | 265° |
| 2026-04-22 12:18 | 31.87656 | 35.15990 | 9970 ft | 293 kts | 265° |
| 2026-04-22 12:18 | 31.87474 | 35.13589 | 9552 ft | 294 kts | 265° |
| 2026-04-22 12:18 | 31.87293 | 35.11197 | 9161 ft | 293 kts | 265° |
| 2026-04-22 12:18 | 31.87113 | 35.08820 | 8760 ft | 289 kts | 265° |
| 2026-04-22 12:19 | 31.87255 | 35.06529 | 8334 ft | 285 kts | 290° |
| 2026-04-22 12:19 | 31.88372 | 35.04668 | 7935 ft | 279 kts | 323° |
| 2026-04-22 12:19 | 31.90144 | 35.03829 | 7540 ft | 277 kts | 355° |
| 2026-04-22 12:19 | 31.92028 | 35.04208 | 7171 ft | 277 kts | 20° |
| 2026-04-22 12:20 | 31.93805 | 35.05106 | 6773 ft | 278 kts | 24° |
| 2026-04-22 12:20 | 31.95563 | 35.06065 | 6382 ft | 279 kts | 25° |
| 2026-04-22 12:20 | 31.97324 | 35.07037 | 6050 ft | 276 kts | 25° |
| 2026-04-22 12:20 | 31.99017 | 35.08015 | 6012 ft | 275 kts | 32° |
| 2026-04-22 12:21 | 32.00528 | 35.09405 | 6013 ft | 275 kts | 40° |
| 2026-04-22 12:21 | 32.01978 | 35.10890 | 6010 ft | 276 kts | 40° |
| 2026-04-22 12:21 | 32.03444 | 35.12329 | 6008 ft | 275 kts | 39° |
| 2026-04-22 12:21 | 32.04945 | 35.13751 | 6006 ft | 275 kts | 38° |
| 2026-04-22 12:22 | 32.06533 | 35.14992 | 5994 ft | 275 kts | 20° |
| 2026-04-22 12:22 | 32.08402 | 35.15297 | 6005 ft | 273 kts | 352° |
| 2026-04-22 12:22 | 32.10195 | 35.14544 | 5585 ft | 280 kts | 325° |
| 2026-04-22 12:22 | 32.11730 | 35.13133 | 5120 ft | 278 kts | 320° |
| 2026-04-22 12:23 | 32.13142 | 35.11597 | 4608 ft | 274 kts | 311° |
| 2026-04-22 12:23 | 32.13948 | 35.10452 | 4287 ft | 272 kts | 308° |
| 2026-04-22 12:23 | 32.14075 | 35.10262 | 4233 ft | 272 kts | 308° |
| 2026-04-22 12:24 | 32.15024 | 35.08831 | 3843 ft | 268 kts | 308° |
| 2026-04-22 12:24 | 32.16156 | 35.07135 | 3359 ft | 257 kts | 308° |
| 2026-04-22 12:24 | 32.17196 | 35.05483 | 2864 ft | 245 kts | 297° |
| 2026-04-22 12:24 | 32.17564 | 35.03724 | 2647 ft | 217 kts | 269° |
| 2026-04-22 12:25 | 32.17343 | 35.02097 | 2595 ft | 187 kts | 251° |
| 2026-04-22 12:25 | 32.16786 | 35.00832 | 2591 ft | 162 kts | 236° |
| 2026-04-22 12:25 | 32.16173 | 34.99796 | 2560 ft | 149 kts | 231° |
| 2026-04-22 12:25 | 32.15371 | 34.99053 | 2637 ft | 149 kts | 213° |
| 2026-04-22 12:26 | 32.14497 | 34.98350 | 2621 ft | 153 kts | 214° |
| 2026-04-22 12:26 | 32.13593 | 34.97691 | 2590 ft | 151 kts | 210° |
| 2026-04-22 12:26 | 32.12681 | 34.97082 | 2527 ft | 152 kts | 210° |
| 2026-04-22 12:26 | 32.11750 | 34.96470 | 2337 ft | 153 kts | 209° |
| 2026-04-22 12:27 | 32.10830 | 34.95872 | 2130 ft | 147 kts | 209° |
| 2026-04-22 12:27 | 32.09935 | 34.95294 | 1960 ft | 147 kts | 209° |
| 2026-04-22 12:27 | 32.09024 | 34.94703 | 1748 ft | 149 kts | 209° |
| 2026-04-22 12:27 | 32.08119 | 34.94116 | 1541 ft | 147 kts | 209° |
| 2026-04-22 12:28 | 32.07223 | 34.93536 | 1357 ft | 147 kts | 210° |
| 2026-04-22 12:28 | 32.06315 | 34.92968 | 1119 ft | 147 kts | 208° |
| 2026-04-22 12:28 | 32.05453 | 34.92400 | 999 ft | 144 kts | 208° |
| 2026-04-22 12:28 | 32.04560 | 34.91819 | 815 ft | 147 kts | 213° |
| 2026-04-22 12:29 | 32.03674 | 34.91212 | 614 ft | 146 kts | 207° |
| 2026-04-22 12:29 | 32.02786 | 34.90650 | 389 ft | 145 kts | 211° |
| 2026-04-22 12:29 | 32.01903 | 34.90080 | 222 ft | 144 kts | 207° |
| 2026-04-22 12:29 | 32.01026 | 34.89531 | 122 ft | 135 kts | 207° |
| 2026-04-22 12:30 | 32.00225 | 34.88970 | 117 ft | 25 kts | 231° |
| 2026-04-22 12:30 | 32.00141 | 34.88836 | 116 ft | 0 kts | 237° |
| 2026-04-22 12:31 | 32.00139 | 34.88833 | 116 ft | 2 kts | 237° |
| 2026-04-22 12:31 | 32.00108 | 34.88774 | 117 ft | 15 kts | 239° |
| 2026-04-22 12:31 | 32.00089 | 34.88661 | 119 ft | 15 kts | 290° |
| 2026-04-22 12:32 | 32.00146 | 34.88542 | 117 ft | 16 kts | 300° |
| 2026-04-22 12:32 | 32.00310 | 34.88227 | 116 ft | 28 kts | 301° |
| 2026-04-22 12:32 | 32.00394 | 34.88064 | 118 ft | 18 kts | 303° |
| 2026-04-22 12:33 | 32.00473 | 34.87916 | 118 ft | 26 kts | 302° |
| 2026-04-22 12:33 | 32.00509 | 34.87848 | 116 ft | 5 kts | 300° |
| 2026-04-22 12:33 | 32.00544 | 34.87775 | 117 ft | 16 kts | 300° |
| 2026-04-22 12:33 | 32.00619 | 34.87637 | 117 ft | 25 kts | 301° |
| 2026-04-22 12:34 | 32.00716 | 34.87448 | 118 ft | 17 kts | 301° |
| 2026-04-22 12:34 | 32.00690 | 34.87379 | 118 ft | 13 kts | 189° |
| 2026-04-22 12:34 | 32.00666 | 34.87379 | 116 ft | 2 kts | 178° |
| 2026-04-22 12:34 | 32.00661 | 34.87376 | 116 ft | 0 kts | 198° |
| 2026-04-22 12:35 | 32.00656 | 34.87378 | 116 ft | 1 kts | 174° |
| 2026-04-22 12:35 | 32.00653 | 34.87378 | 117 ft | 0 kts | 175° |
| 2026-04-22 12:35 | 32.00652 | 34.87378 | 117 ft | 0 kts | 176° |
| 2026-04-22 12:36 | 32.00651 | 34.87378 | 117 ft | 0 kts | 176° |